• Join FlightAware (Why Join?)
  • Login
  • US Flag 
10:38AM EDT


 

Airport Tracker/Info


-or-


 

Live Flight TrackerFlight Track Log ✈ AFL150 ✈ 02-Mar-2014 ✈ UUEE / SVO - MUHA / HAV

Flight Track Log - Related Links

Times and Time Zones

All times are in EST time to prevent confusion due to time zone crossing. See the AFL150 flight status page for this flight to view local times or setup timezone preferences in your user account.

Time Position Orientation Groundspeed Altitude Reporting Facility
EST Latitude Longitude Course Direction KTS MPH feet Rate Location/Type
04:38AM 56.2548 36.8427 311° West  Level FlightAware Approximate
04:39AM 56.3301 36.6809 310° West  Level FlightAware Approximate
04:40AM 56.4051 36.5184 310° West  Level FlightAware Approximate
04:41AM 56.4799 36.3554 310° West  Level FlightAware Approximate
04:42AM 56.5546 36.1916 310° West  Level FlightAware Approximate
04:43AM 56.6289 36.0273 309° West  Level FlightAware Approximate
04:44AM 56.7031 35.8623 309° West  Level FlightAware Approximate
04:45AM 56.7771 35.6966 309° West  Level FlightAware Approximate
04:46AM 56.8508 35.5303 309° West  Level FlightAware Approximate
04:47AM 56.9243 35.3633 309° West  Level FlightAware Approximate
04:48AM 56.9976 35.1956 309° West  Level FlightAware Approximate
04:49AM 57.0707 35.0274 309° West  Level FlightAware Approximate
04:50AM 57.1436 34.8584 309° West  Level FlightAware Approximate
04:51AM 57.2162 34.6888 308° West  Level FlightAware Approximate
04:52AM 57.2886 34.5185 308° West  Level FlightAware Approximate
04:53AM 57.3607 34.3475 308° West  Level FlightAware Approximate
04:54AM 57.3770 34.3073 306° West  Level FlightAware Approximate
04:55AM 57.4465 34.1321 306° West  Level FlightAware Approximate
04:56AM 57.5157 33.9563 306° West  Level FlightAware Approximate
04:57AM 57.5847 33.7798 306° West  Level FlightAware Approximate
04:58AM 57.6534 33.6026 306° West  Level FlightAware Approximate
04:59AM 57.7219 33.4248 306° West  Level FlightAware Approximate
05:00AM 57.7901 33.2463 306° West  Level FlightAware Approximate
05:01AM 57.8581 33.0671 306° West  Level FlightAware Approximate
05:02AM 57.9258 32.8872 305° West  Level FlightAware Approximate
05:03AM 57.9933 32.7067 305° West  Level FlightAware Approximate
05:04AM 58.0605 32.5255 305° West  Level FlightAware Approximate
05:05AM 58.1274 32.3436 305° West  Level FlightAware Approximate
05:06AM 58.1941 32.1610 305° West  Level FlightAware Approximate
05:07AM 58.2606 31.9777 305° West  Level FlightAware Approximate
05:08AM 58.3267 31.7938 304° West  Level FlightAware Approximate
05:09AM 58.3926 31.6091 304° West  Level FlightAware Approximate
05:10AM 58.4583 31.4238 304° West  Level FlightAware Approximate
05:11AM 58.5236 31.2377 304° West  Level FlightAware Approximate
05:12AM 58.5887 31.0510 304° West  Level FlightAware Approximate
05:13AM 58.6536 30.8636 304° West  Level FlightAware Approximate
05:14AM 58.7181 30.6755 304° West  Level FlightAware Approximate
05:15AM 58.7824 30.4867 303° West  Level FlightAware Approximate
05:16AM 58.8464 30.2972 303° West  Level FlightAware Approximate
05:17AM 58.9101 30.1070 303° West  Level FlightAware Approximate
05:18AM 58.9736 29.9161 303° West  Level FlightAware Approximate
05:19AM 59.0367 29.7244 303° West  Level FlightAware Approximate
05:20AM 59.0996 29.5321 303° West  Level FlightAware Approximate
05:21AM 59.1622 29.3391 302° West  Level FlightAware Approximate
05:22AM 59.2245 29.1454 302° West  Level FlightAware Approximate
05:23AM 59.2865 28.9510 302° West  Level FlightAware Approximate
05:24AM 59.3482 28.7558 302° West  Level FlightAware Approximate
05:25AM 59.4097 28.5600 302° West  Level FlightAware Approximate
05:26AM 59.4708 28.3634 302° West  Level FlightAware Approximate
05:27AM 59.5316 28.1661 301° West  Level FlightAware Approximate
05:28AM 59.5922 27.9681 301° West  Level FlightAware Approximate
05:29AM 59.6524 27.7694 301° West  Level FlightAware Approximate
05:30AM 59.7124 27.5700 301° West  Level FlightAware Approximate
05:31AM 59.7720 27.3699 301° West  Level FlightAware Approximate
05:32AM 59.8313 27.1691 301° West  Level FlightAware Approximate
05:33AM 59.8904 26.9675 300° West  Level FlightAware Approximate
05:34AM 59.9491 26.7652 300° West  Level FlightAware Approximate
05:35AM 60.0075 26.5623 300° West  Level FlightAware Approximate
05:36AM 60.0656 26.3586 300° West  Level FlightAware Approximate
05:37AM 60.1233 26.1542 300° West  Level FlightAware Approximate
05:38AM 60.1808 25.9490 299° West  Level FlightAware Approximate
05:39AM 60.2380 25.7432 299° West  Level FlightAware Approximate
05:40AM 60.2948 25.5366 299° West  Level FlightAware Approximate
05:41AM 60.3513 25.3293 299° West  Level FlightAware Approximate
05:42AM 60.4075 25.1213 299° West  Level FlightAware Approximate
05:43AM 60.4633 24.9126 299° West  Level FlightAware Approximate
05:44AM 60.5188 24.7031 298° West  Level FlightAware Approximate
05:45AM 60.5741 24.4930 298° West  Level FlightAware Approximate
05:46AM 60.6289 24.2821 298° West  Level FlightAware Approximate
05:47AM 60.6834 24.0705 298° West  Level FlightAware Approximate
05:48AM 60.7377 23.8582 298° West  Level FlightAware Approximate
05:49AM 60.7915 23.6452 297° West  Level FlightAware Approximate
05:50AM 60.8450 23.4315 297° West  Level FlightAware Approximate
05:51AM 60.8982 23.2170 297° West  Level FlightAware Approximate
05:52AM 60.9511 23.0019 297° West  Level FlightAware Approximate
05:53AM 61.0036 22.7860 297° West  Level FlightAware Approximate
05:54AM 61.0557 22.5694 297° West  Level FlightAware Approximate
05:55AM 61.1075 22.3521 296° West  Level FlightAware Approximate
05:56AM 61.1590 22.1341 296° West  Level FlightAware Approximate
05:57AM 61.2101 21.9153 296° West  Level FlightAware Approximate
05:58AM 61.2608 21.6959 296° West  Level FlightAware Approximate
05:59AM 61.3112 21.4758 296° West  Level FlightAware Approximate
06:00AM 61.3613 21.2549 295° West  Level FlightAware Approximate
06:01AM 61.4109 21.0334 295° West  Level FlightAware Approximate
06:02AM 61.4603 20.8111 295° West  Level FlightAware Approximate
06:03AM 61.5092 20.5882 295° West  Level FlightAware Approximate
06:04AM 61.5578 20.3645 295° West  Level FlightAware Approximate
06:05AM 61.6060 20.1401 294° West  Level FlightAware Approximate
06:06AM 61.6539 19.9151 294° West  Level FlightAware Approximate
06:07AM 61.7014 19.6893 294° West  Level FlightAware Approximate
06:08AM 61.7485 19.4629 294° West  Level FlightAware Approximate
06:09AM 61.7952 19.2358 294° West  Level FlightAware Approximate
06:10AM 61.8416 19.0079 293° West  Level FlightAware Approximate
06:11AM 61.8875 18.7794 293° West  Level FlightAware Approximate
06:12AM 61.9331 18.5502 293° West  Level FlightAware Approximate
06:13AM 61.9784 18.3204 293° West  Level FlightAware Approximate
06:14AM 62.0232 18.0898 293° West  Level FlightAware Approximate
06:15AM 62.0676 17.8586 292° West  Level FlightAware Approximate
06:16AM 62.1117 17.6267 292° West  Level FlightAware Approximate
06:17AM 62.1554 17.3941 292° West  Level FlightAware Approximate
06:18AM 62.1987 17.1608 292° West  Level FlightAware Approximate
06:19AM 62.2416 16.9269 292° West  Level FlightAware Approximate
06:20AM 62.2841 16.6923 291° West  Level FlightAware Approximate
06:21AM 62.3262 16.4571 291° West  Level FlightAware Approximate
06:22AM 62.3679 16.2212 291° West  Level FlightAware Approximate
06:23AM 62.4092 15.9847 291° West  Level FlightAware Approximate
06:24AM 62.4501 15.7475 291° West  Level FlightAware Approximate
06:25AM 62.4906 15.5096 290° West  Level FlightAware Approximate
06:26AM 62.5306 15.2711 290° West  Level FlightAware Approximate
06:27AM 62.5703 15.0320 290° West  Level FlightAware Approximate
06:28AM 62.6096 14.7922 290° West  Level FlightAware Approximate
06:29AM 62.6485 14.5518 289° West  Level FlightAware Approximate
06:30AM 62.6869 14.3108 289° West  Level FlightAware Approximate
06:31AM 62.7250 14.0692 289° West  Level FlightAware Approximate
06:32AM 62.7626 13.8269 289° West  Level FlightAware Approximate
06:33AM 62.7999 13.5841 289° West  Level FlightAware Approximate
06:34AM 62.8367 13.3406 288° West  Level FlightAware Approximate
06:35AM 62.8731 13.0965 288° West  Level FlightAware Approximate
06:36AM 62.9090 12.8518 288° West  Level FlightAware Approximate
06:37AM 62.9446 12.6066 288° West  Level FlightAware Approximate
06:38AM 62.9797 12.3607 288° West  Level FlightAware Approximate
06:39AM 63.0144 12.1142 287° West  Level FlightAware Approximate
06:40AM 63.0487 11.8672 287° West  Level FlightAware Approximate
06:41AM 63.0825 11.6196 287° West  Level FlightAware Approximate
06:42AM 63.1159 11.3714 287° West  Level FlightAware Approximate
06:43AM 63.1489 11.1226 286° West  Level FlightAware Approximate
06:44AM 63.1814 10.8733 286° West  Level FlightAware Approximate
06:45AM 63.2135 10.6234 286° West  Level FlightAware Approximate
06:46AM 63.2451 10.3730 286° West  Level FlightAware Approximate
06:47AM 63.2763 10.1220 286° West  Level FlightAware Approximate
06:48AM 63.3071 9.8705 285° West  Level FlightAware Approximate
06:49AM 63.3374 9.6184 285° West  Level FlightAware Approximate
06:50AM 63.3673 9.3659 285° West  Level FlightAware Approximate
06:51AM 63.3967 9.1128 285° West  Level FlightAware Approximate
06:52AM 63.4257 8.8591 284° West  Level FlightAware Approximate
06:53AM 63.4542 8.6050 284° West  Level FlightAware Approximate
06:54AM 63.4823 8.3504 284° West  Level FlightAware Approximate
06:55AM 63.5099 8.0953 284° West  Level FlightAware Approximate
06:56AM 63.5371 7.8397 284° West  Level FlightAware Approximate
06:57AM 63.5638 7.5835 283° West  Level FlightAware Approximate
06:58AM 63.5901 7.3270 283° West  Level FlightAware Approximate
06:59AM 63.6159 7.0699 283° West  Level FlightAware Approximate
07:00AM 63.6412 6.8124 283° West  Level FlightAware Approximate
07:01AM 63.6661 6.5545 282° West  Level FlightAware Approximate
07:02AM 63.6905 6.2960 282° West  Level FlightAware Approximate
07:03AM 63.7145 6.0372 282° West  Level FlightAware Approximate
07:04AM 63.7380 5.7779 282° West  Level FlightAware Approximate
07:05AM 63.7610 5.5182 281° West  Level FlightAware Approximate
07:06AM 63.7836 5.2580 281° West  Level FlightAware Approximate
07:07AM 63.8056 4.9975 281° West  Level FlightAware Approximate
07:08AM 63.8273 4.7365 281° West  Level FlightAware Approximate
07:09AM 63.8484 4.4752 281° West  Level FlightAware Approximate
07:10AM 63.8691 4.2135 280° West  Level FlightAware Approximate
07:11AM 63.8893 3.9513 280° West  Level FlightAware Approximate
07:12AM 63.9090 3.6889 280° West  Level FlightAware Approximate
07:13AM 63.9282 3.4260 280° West  Level FlightAware Approximate
07:14AM 63.9470 3.1628 279° West  Level FlightAware Approximate
07:15AM 63.9653 2.8992 279° West  Level FlightAware Approximate
07:16AM 63.9831 2.6353 279° West  Level FlightAware Approximate
07:17AM 64.0005 2.3711 279° West  Level FlightAware Approximate
07:18AM 64.0173 2.1065 278° West  Level FlightAware Approximate
07:19AM 64.0336 1.8417 278° West  Level FlightAware Approximate
07:20AM 64.0495 1.5764 278° West  Level FlightAware Approximate
07:21AM 64.0648 1.3110 278° West  Level FlightAware Approximate
07:22AM 64.0797 1.0452 277° West  Level FlightAware Approximate
07:23AM 64.0941 0.7791 277° West  Level FlightAware Approximate
07:24AM 64.1080 0.5128 277° West  Level FlightAware Approximate
07:25AM 64.1214 0.2462 277° West  Level FlightAware Approximate
07:26AM 64.1344 -0.0206 276° West  Level FlightAware Approximate
07:27AM 64.1472 -0.2876 276° West  Level FlightAware Approximate
07:28AM 64.1596 -0.5548 276° West  Level FlightAware Approximate
07:29AM 64.1715 -0.8223 276° West  Level FlightAware Approximate
07:30AM 64.1829 -1.0900 276° West  Level FlightAware Approximate
07:31AM 64.1938 -1.3579 275° West  Level FlightAware Approximate
07:32AM 64.2042 -1.6260 275° West  Level FlightAware Approximate
07:33AM 64.2141 -1.8943 275° West  Level FlightAware Approximate
07:34AM 64.2235 -2.1628 275° West  Level FlightAware Approximate
07:35AM 64.2324 -2.4314 274° West  Level FlightAware Approximate
07:36AM 64.2409 -2.7003 274° West  Level FlightAware Approximate
07:37AM 64.2488 -2.9693 274° West  Level FlightAware Approximate
07:38AM 64.2563 -3.2384 274° West  Level FlightAware Approximate
07:39AM 64.2632 -3.5077 274° West  Level FlightAware Approximate
07:40AM 64.2697 -3.7771 273° West  Level FlightAware Approximate
07:41AM 64.2757 -4.0467 273° West  Level FlightAware Approximate
07:42AM 64.2811 -4.3163 273° West  Level FlightAware Approximate
07:43AM 64.2861 -4.5861 273° West  Level FlightAware Approximate
07:44AM 64.2906 -4.8559 272° West  Level FlightAware Approximate
07:45AM 64.2946 -5.1258 272° West  Level FlightAware Approximate
07:46AM 64.2980 -5.3958 272° West  Level FlightAware Approximate
07:47AM 64.3010 -5.6659 272° West  Level FlightAware Approximate
07:48AM 64.3035 -5.9360 271° West  Level FlightAware Approximate
07:49AM 64.3055 -6.2062 271° West  Level FlightAware Approximate
07:50AM 64.3070 -6.4764 271° West  Level FlightAware Approximate
07:51AM 64.3080 -6.7466 271° West  Level FlightAware Approximate
07:52AM 64.3085 -7.0168 270° West  Level FlightAware Approximate
07:53AM 64.3085 -7.2871 270° West  Level FlightAware Approximate
07:54AM 64.3080 -7.5573 270° West  Level FlightAware Approximate
07:55AM 64.3070 -7.8275 270° West  Level FlightAware Approximate
07:56AM 64.3055 -8.0977 269° West  Level FlightAware Approximate
07:57AM 64.3035 -8.3679 269° West  Level FlightAware Approximate
07:58AM 64.3010 -8.6380 269° West  Level FlightAware Approximate
07:59AM 64.2976 -8.9080 268° West  Level FlightAware Approximate
08:00AM 64.2934 -9.1780 268° West  Level FlightAware Approximate
08:01AM 64.2888 -9.4478 268° West  Level FlightAware Approximate
08:02AM 64.2836 -9.7176 268° West  Level FlightAware Approximate
08:03AM 64.2780 -9.9873 267° West  Level FlightAware Approximate
08:04AM 64.2718 -10.2568 267° West  Level FlightAware Approximate
08:05AM 64.2652 -10.5262 267° West  Level FlightAware Approximate
08:06AM 64.2580 -10.7955 267° West  Level FlightAware Approximate
08:07AM 64.2504 -11.0646 266° West  Level FlightAware Approximate
08:08AM 64.2423 -11.3336 266° West  Level FlightAware Approximate
08:09AM 64.2337 -11.6024 266° West  Level FlightAware Approximate
08:10AM 64.2245 -11.8711 266° West  Level FlightAware Approximate
08:11AM 64.2149 -12.1395 265° West  Level FlightAware Approximate
08:12AM 64.2048 -12.4078 265° West  Level FlightAware Approximate
08:13AM 64.1943 -12.6759 265° West  Level FlightAware Approximate
08:14AM 64.1832 -12.9438 265° West  Level FlightAware Approximate
08:15AM 64.1716 -13.2114 264° West  Level FlightAware Approximate
08:16AM 64.1595 -13.4788 264° West  Level FlightAware Approximate
08:17AM 64.1470 -13.7460 264° West  Level FlightAware Approximate
08:18AM 64.1339 -14.0129 264° West  Level FlightAware Approximate
08:19AM 64.1204 -14.2796 263° West  Level FlightAware Approximate
08:20AM 64.1064 -14.5460 263° West  Level FlightAware Approximate
08:21AM 64.0919 -14.8122 263° West  Level FlightAware Approximate
08:22AM 64.0769 -15.0780 263° West  Level FlightAware Approximate
08:23AM 64.0615 -15.3436 263° West  Level FlightAware Approximate
08:24AM 64.0455 -15.6089 262° West  Level FlightAware Approximate
08:25AM 64.0291 -15.8738 262° West  Level FlightAware Approximate
08:26AM 64.0122 -16.1385 262° West  Level FlightAware Approximate
08:27AM 63.9948 -16.4028 262° West  Level FlightAware Approximate
08:28AM 63.9769 -16.6668 261° West  Level FlightAware Approximate
08:29AM 63.9585 -16.9304 261° West  Level FlightAware Approximate
08:30AM 63.9397 -17.1937 261° West  Level FlightAware Approximate
08:31AM 63.9204 -17.4567 261° West  Level FlightAware Approximate
08:32AM 63.9006 -17.7192 260° West  Level FlightAware Approximate
08:33AM 63.8803 -17.9814 260° West  Level FlightAware Approximate
08:34AM 63.8596 -18.2433 260° West  Level FlightAware Approximate
08:35AM 63.8384 -18.5047 260° West  Level FlightAware Approximate
08:36AM 63.8167 -18.7657 259° West  Level FlightAware Approximate
08:37AM 63.7945 -19.0263 259° West  Level FlightAware Approximate
08:38AM 63.7719 -19.2865 259° West  Level FlightAware Approximate
08:39AM 63.7489 -19.5463 259° West  Level FlightAware Approximate
08:40AM 63.7257 -19.8059 259° West  Level FlightAware Approximate
08:41AM 63.7022 -20.0650 259° West  Level FlightAware Approximate
08:42AM 63.6782 -20.3237 258° West  Level FlightAware Approximate
08:43AM 63.6537 -20.5820 258° West  Level FlightAware Approximate
08:44AM 63.6287 -20.8398 258° West  Level FlightAware Approximate
08:45AM 63.6033 -21.0972 258° West  Level FlightAware Approximate
08:46AM 63.5774 -21.3541 257° West  Level FlightAware Approximate
08:47AM 63.5511 -21.6105 257° West  Level FlightAware Approximate
08:48AM 63.5243 -21.8664 257° West  Level FlightAware Approximate
08:49AM 63.4970 -22.1219 257° West  Level FlightAware Approximate
08:50AM 63.4693 -22.3769 256° West  Level FlightAware Approximate
08:51AM 63.4412 -22.6313 256° West  Level FlightAware Approximate
08:52AM 63.4126 -22.8853 256° West  Level FlightAware Approximate
08:53AM 63.3835 -23.1388 256° West  Level FlightAware Approximate
08:54AM 63.3540 -23.3917 256° West  Level FlightAware Approximate
08:55AM 63.3241 -23.6441 255° West  Level FlightAware Approximate
08:56AM 63.2937 -23.8960 255° West  Level FlightAware Approximate
08:57AM 63.2628 -24.1474 255° West  Level FlightAware Approximate
08:58AM 63.2315 -24.3982 255° West  Level FlightAware Approximate
08:59AM 63.1998 -24.6484 254° West  Level FlightAware Approximate
09:00AM 63.1676 -24.8982 254° West  Level FlightAware Approximate
09:01AM 63.1351 -25.1473 254° West  Level FlightAware Approximate
09:02AM 63.1020 -25.3959 254° West  Level FlightAware Approximate
09:03AM 63.0685 -25.6439 254° West  Level FlightAware Approximate
09:04AM 63.0346 -25.8914 253° West  Level FlightAware Approximate
09:05AM 63.0003 -26.1383 253° West  Level FlightAware Approximate
09:06AM 62.9655 -26.3846 253° West  Level FlightAware Approximate
09:07AM 62.9304 -26.6303 253° West  Level FlightAware Approximate
09:08AM 62.8947 -26.8754 252° West  Level FlightAware Approximate
09:09AM 62.8587 -27.1199 252° West  Level FlightAware Approximate
09:10AM 62.8222 -27.3638 252° West  Level FlightAware Approximate
09:11AM 62.7854 -27.6071 252° West  Level FlightAware Approximate
09:12AM 62.7481 -27.8498 252° West  Level FlightAware Approximate
09:13AM 62.7103 -28.0919 251° West  Level FlightAware Approximate
09:14AM 62.6722 -28.3333 251° West  Level FlightAware Approximate
09:15AM 62.6337 -28.5742 251° West  Level FlightAware Approximate
09:16AM 62.5947 -28.8144 251° West  Level FlightAware Approximate
09:17AM 62.5553 -29.0539 250° West  Level FlightAware Approximate
09:18AM 62.5155 -29.2929 250° West  Level FlightAware Approximate
09:19AM 62.4753 -29.5311 250° West  Level FlightAware Approximate
09:20AM 62.4348 -29.7688 250° West  Level FlightAware Approximate
09:21AM 62.3938 -30.0058 250° West  Level FlightAware Approximate
09:22AM 62.3524 -30.2421 249° West  Level FlightAware Approximate
09:23AM 62.3106 -30.4778 249° West  Level FlightAware Approximate
09:24AM 62.2684 -30.7129 249° West  Level FlightAware Approximate
09:25AM 62.2258 -30.9473 249° West  Level FlightAware Approximate
09:26AM 62.1828 -31.1810 249° West  Level FlightAware Approximate
09:27AM 62.1394 -31.4140 248° West  Level FlightAware Approximate
09:28AM 62.0957 -31.6464 248° West  Level FlightAware Approximate
09:29AM 62.0515 -31.8781 248° West  Level FlightAware Approximate
09:30AM 62.0070 -32.1091 248° West  Level FlightAware Approximate
09:31AM 61.9620 -32.3395 248° West  Level FlightAware Approximate
09:32AM 61.9167 -32.5691 247° West  Level FlightAware Approximate
09:33AM 61.8710 -32.7981 247° West  Level FlightAware Approximate
09:34AM 61.8250 -33.0264 247° West  Level FlightAware Approximate
09:35AM 61.7785 -33.2541 247° West  Level FlightAware Approximate
09:36AM 65.0000 -40.0000 241° Southwest 449 517 34,000  Level ETMS Enhanced Traffic Management System
09:56AM 65.0000 -40.0000 241° Southwest 449 517 34,000  Level ETMS Enhanced Traffic Management System
09:56AM 65.0000 -40.0000 241° Southwest 449 517 34,000  Level ETMS Enhanced Traffic Management System
10:17AM 62.0000 -50.0000 236° Southwest 431 496 34,000  Level ETMS Enhanced Traffic Management System
10:52AM 59.3333 -57.0667 229° Southwest 440 506 34,000  Level Gander Center
10:53AM 59.2952 -57.1717 229° Southwest 431 496 34,000  Level FlightAware Transoceanic
10:53AM 59.2500 -57.2500 228° Southwest 440 506 34,000  Level Gander Center
10:54AM 59.2170 -57.3493 229° Southwest 431 496 34,000  Level FlightAware Transoceanic
10:54AM 59.1667 -57.4167 226° Southwest 440 506 34,000  Level Gander Center
10:55AM 59.1386 -57.5260 229° Southwest 431 496 34,000  Level FlightAware Transoceanic
10:55AM 59.0500 -57.5333 207° Southwest 440 506 34,000  Level Gander Center
10:56AM 59.0600 -57.7019 229° Southwest 431 496 34,000  Level FlightAware Transoceanic
10:56AM 58.9333 -57.6667 211° Southwest 450 518 34,000  Level Gander Center
10:57AM 58.9811 -57.8770 229° Southwest 431 496 34,000  Level FlightAware Transoceanic
10:57AM 58.8333 -57.8000 215° Southwest 450 518 34,000  Level Gander Center
10:58AM 58.7500 -57.9167 216° Southwest 450 518 34,000  Level Gander Center
10:59AM 58.6333 -58.0500 211° Southwest 460 529 34,000  Level Gander Center
11:00AM 58.5333 -58.1500 208° Southwest 430 495 34,000  Level Gander Center
11:01AM 58.4500 -58.2500 212° Southwest 430 495 34,000  Level Gander Center
11:02AM 58.3333 -58.3667 208° Southwest 430 495 34,000  Level Gander Center
11:03AM 58.2333 -58.5000 215° Southwest 430 495 34,000  Level Gander Center
11:04AM 58.1500 -58.6000 212° Southwest 430 495 34,000  Level Gander Center
11:05AM 58.0500 -58.7333 215° Southwest 420 483 34,000  Level Gander Center
11:06AM 57.9333 -58.8333 204° Southwest 420 483 34,000  Level Gander Center
11:07AM 57.8333 -58.9333 208° Southwest 420 483 34,000  Level Gander Center
11:08AM 57.7333 -59.0667 215° Southwest 420 483 34,000  Level Gander Center
11:09AM 57.6333 -59.1667 208° Southwest 420 483 34,000  Level Gander Center
11:10AM 57.5333 -59.2667 208° Southwest 420 483 34,000  Level Gander Center
11:11AM 57.4167 -59.4000 212° Southwest 420 483 34,000  Level Gander Center
11:12AM 57.3167 -59.4833 204° Southwest 430 495 34,000  Level Gander Center
11:13AM 57.2333 -59.6167 221° Southwest 450 518 34,000  Level Gander Center
11:14AM 57.1333 -59.7167 208° Southwest 430 495 34,000  Level Gander Center
11:15AM 57.0333 -59.8333 212° Southwest 420 483 34,000  Level Gander Center
11:16AM 56.9167 -59.9333 205° Southwest 420 483 34,000  Level Gander Center
11:17AM 56.8167 -60.0667 216° Southwest 420 483 34,000  Level Gander Center
11:18AM 56.7167 -60.1500 205° Southwest 400 460 34,000  Level Gander Center
11:19AM 56.6167 -60.2500 209° Southwest 410 472 34,000  Level Gander Center
11:20AM 56.5000 -60.3667 209° Southwest 410 472 34,000  Level Gander Center
11:21AM 56.4167 -60.4667 214° Southwest 410 472 34,000 300 Level Gander Center
11:22AM 56.3000 -60.5667 205° Southwest 410 472 34,600 660 Climbing Gander Center
11:23AM 56.2000 -60.6833 213° Southwest 420 483 35,400 660 Climbing Gander Center
11:24AM 56.1000 -60.7667 205° Southwest 430 495 36,000 300 Climbing Gander Center
11:25AM 56.0000 -60.8667 209° Southwest 430 495 36,000  Level Gander Center
11:26AM 55.9000 -60.9833 213° Southwest 420 483 36,000  Level Gander Center
11:27AM 55.8000 -61.0667 205° Southwest 420 483 36,000  Level Gander Center
11:28AM 55.7000 -61.1667 209° Southwest 420 483 36,000  Level Gander Center
11:29AM 55.5833 -61.2833 209° Southwest 410 472 36,000  Level Gander Center
11:30AM 55.4833 -61.3667 205° Southwest 420 483 36,000  Level Gander Center
11:31AM 55.4000 -61.4667 214° Southwest 420 483 36,000  Level Gander Center
11:32AM 55.2833 -61.5833 210° Southwest 410 472 36,000  Level Gander Center
11:33AM 55.1833 -61.6667 205° Southwest 420 483 36,000  Level Gander Center
11:34AM 55.0833 -61.7500 206° Southwest 420 483 36,000  Level Gander Center
11:35AM 54.9833 -61.8333 206° Southwest 420 483 36,000  Level Gander Center
11:36AM 54.8833 -61.9500 214° Southwest 410 472 36,000  Level Gander Center
11:37AM 54.7833 -62.0333 206° Southwest 420 483 36,000  Level Gander Center
11:38AM 54.6833 -62.1500 214° Southwest 420 483 36,000  Level Gander Center
11:39AM 54.5833 -62.2333 206° Southwest 410 472 36,000  Level Gander Center
11:40AM 54.4667 -62.3167 203° Southwest 410 472 36,000  Level Gander Center
11:41AM 54.3833 -62.4000 210° Southwest 410 472 36,000  Level Gander Center
11:42AM 54.2833 -62.4833 206° Southwest 420 483 36,000  Level Gander Center
11:43AM 54.1500 -62.6000 207° Southwest 410 472 36,000  Level Gander Center
11:44AM 54.0667 -62.6833 210° Southwest 410 472 36,000  Level Gander Center
11:45AM 53.9500 -62.7833 207° Southwest 410 472 36,000  Level Gander Center
11:46AM 53.8667 -62.8667 211° Southwest 410 472 36,000  Level Gander Center
11:47AM 53.7500 -62.9500 203° Southwest 410 472 36,000  Level Gander Center
11:48AM 53.6667 -63.0333 211° Southwest 400 460 36,000  Level Gander Center
11:49AM 53.5500 -63.1333 207° Southwest 400 460 36,000  Level Gander Center
11:50AM 53.4667 -63.2167 211° Southwest 410 472 36,000  Level Gander Center
11:51AM 53.3667 -63.3000 206° Southwest 410 472 36,000  Level Gander Center
11:52AM 53.2500 -63.3833 203° Southwest 410 472 36,000  Level Gander Center
11:53AM 53.1667 -63.4500 206° Southwest 410 472 36,000  Level Gander Center
11:54AM 53.0500 -63.5667 211° Southwest 410 472 36,000  Level Gander Center
11:55AM 52.9500 -63.6333 202° Southwest 410 472 36,000  Level Gander Center
11:56AM 52.8333 -63.7167 203° Southwest 420 483 36,000  Level Gander Center
11:57AM 52.7333 -63.8167 211° Southwest 420 483 36,000  Level Gander Center
11:58AM 52.6500 -63.9000 211° Southwest 410 472 36,000  Level Gander Center
11:59AM 52.5333 -63.9833 203° Southwest 410 472 36,000  Level Gander Center
12:00PM 52.4500 -64.0500 206° Southwest 410 472 36,000  Level Gander Center
12:01PM 52.3333 -64.1500 208° Southwest 410 472 36,000  Level Gander Center
12:02PM 52.2333 -64.2333 207° Southwest 410 472 36,000  Level Gander Center
12:03PM 52.1167 -64.3000 199° South 410 472 36,000  Level Gander Center
12:04PM 52.0333 -64.3833 212° Southwest 410 472 36,000  Level Gander Center
12:05PM 51.9333 -64.4500 202° Southwest 410 472 36,000  Level Gander Center
12:06PM 51.8333 -64.5500 212° Southwest 410 472 36,000  Level Gander Center
12:07PM 51.7333 -64.6333 207° Southwest 410 472 36,000  Level Gander Center
12:08PM 51.6000 -64.7000 197° South 410 472 36,000  Level Gander Center
12:09PM 51.5167 -64.7833 212° Southwest 400 460 36,000  Level Gander Center
12:10PM 51.4167 -64.8833 212° Southwest 410 472 36,000  Level Gander Center
12:11PM 51.3167 -64.9500 203° Southwest 410 472 36,000  Level Gander Center
12:12PM 51.2167 -65.0167 203° Southwest 400 460 36,000  Level Gander Center
12:13PM 51.1167 -65.1000 208° Southwest 410 472 36,000  Level Gander Center
12:14PM 51.0000 -65.1833 204° Southwest 400 460 36,000  Level Gander Center
12:15PM 50.9000 -65.2667 208° Southwest 410 472 36,000  Level Gander Center
12:16PM 50.8000 -65.3333 203° Southwest 400 460 36,000  Level Gander Center
12:17PM 50.7000 -65.4000 203° Southwest 400 460 36,000  Level Gander Center
12:18PM 50.6000 -65.4667 203° Southwest 400 460 36,000  Level Gander Center
12:19PM 50.4833 -65.5667 209° Southwest 400 460 36,000  Level Gander Center
12:20PM 50.3833 -65.6333 203° Southwest 400 460 36,000  Level Gander Center
12:21PM 50.3000 -65.7000 207° Southwest 400 460 36,000  Level Gander Center
12:22PM 50.2000 -65.7833 208° Southwest 400 460 36,000  Level Gander Center
12:23PM 50.1000 -65.8500 203° Southwest 410 472 36,000  Level Gander Center
12:24PM 50.0000 -65.9333 208° Southwest 410 472 36,000  Level Gander Center
12:25PM 49.8833 -66.0000 200° South 400 460 36,000  Level Gander Center
12:26PM 49.7833 -66.0667 203° Southwest 410 472 36,000  Level Gander Center
12:27PM 49.6833 -66.1500 208° Southwest 400 460 36,000  Level Gander Center
12:28PM 49.5833 -66.2333 208° Southwest 400 460 36,000  Level Gander Center
12:29PM 49.4667 -66.3000 200° South 410 472 36,000  Level Gander Center
12:30PM 49.3667 -66.3667 203° Southwest 400 460 36,000  Level Gander Center
12:31PM 49.2833 -66.4333 208° Southwest 400 460 36,000  Level Gander Center
12:32PM 49.1667 -66.5000 200° South 400 460 36,000  Level Gander Center
12:33PM 49.0833 -66.5667 208° Southwest 400 460 36,000  Level Gander Center
12:34PM 48.9667 -66.6500 205° Southwest 400 460 36,000  Level Gander Center
12:35PM 48.8667 -66.7167 204° Southwest 400 460 36,000  Level Gander Center
12:36PM 48.7667 -66.7833 204° Southwest 400 460 36,000  Level Gander Center
12:37PM 48.6667 -66.8500 204° Southwest 400 460 36,000  Level Gander Center
12:38PM 48.5500 -66.9333 205° Southwest 400 460 36,000  Level Gander Center
12:39PM 48.4500 -67.0000 204° Southwest 400 460 36,000  Level Gander Center
12:40PM 48.3667 -67.0667 208° Southwest 400 460 36,000  Level Gander Center
12:41PM 48.2667 -67.1333 204° Southwest 400 460 36,000  Level Gander Center
12:42PM 48.1667 -67.2000 204° Southwest 390 449 36,000  Level Gander Center
12:43PM 48.0500 -67.2667 201° Southwest 390 449 36,000  Level Gander Center
12:44PM 47.9500 -67.3167 199° South 390 449 36,000  Level Gander Center
12:45PM 47.8667 -67.4167 219° Southwest 390 449 36,000  Level Gander Center
12:46PM 47.7667 -67.4667 199° South 390 449 36,000  Level Gander Center
12:51PM 47.3164 -67.7517 203° Southwest 406 467 36,000  Level FlightAware ADS-B (CYSG)
12:53PM 46.9940 -67.9566 204° Southwest 407 468 36,000  Level FlightAware ADS-B (CYSG)
12:54PM 46.9328 -67.9954 203° Southwest 405 466 36,000  Level FlightAware ADS-B (CYSG)
12:55PM 46.8763 -68.0308 203° Southwest 405 466 36,000  Level FlightAware ADS-B (CYSG)
12:55PM 46.8137 -68.0700 203° Southwest 404 465 36,000  Level FlightAware ADS-B (CYSG)
12:56PM 46.7624 -68.0990 198° South 409 471 36,000  Level FlightAware ADS-B (CYSG)
12:57PM 46.6705 -68.1371 197° South 408 470 36,000  Level FlightAware ADS-B (CYSG)
12:57PM 46.6108 -68.1625 196° South 409 471 36,000  Level FlightAware ADS-B (CYSG)
12:58PM 46.5541 -68.1864 196° South 410 472 36,000  Level FlightAware ADS-B (CYSG)
12:58PM 46.4956 -68.2125 202° Southwest 403 464 36,000  Level FlightAware ADS-B (CYSG)
12:58PM 46.4705 -68.2325 213° Southwest 390 449 36,000  Level FlightAware ADS-B (CYSG)
12:59PM 46.4083 -68.2890 211° Southwest 394 453 36,000  Level FlightAware ADS-B (CYSG)
01:00PM 46.3316 -68.3568 212° Southwest 395 455 36,000  Level FlightAware ADS-B (CYSG)
01:01PM 46.2707 -68.4110 212° Southwest 395 455 36,000  Level FlightAware ADS-B (CYSG)
01:01PM 46.2204 -68.4557 212° Southwest 395 455 36,000  Level FlightAware ADS-B (CYSG)
01:02PM 46.1600 -68.5091 212° Southwest 396 456 36,000  Level FlightAware ADS-B (CYSG)
01:02PM 46.1177 -68.5463 212° Southwest 396 456 36,000  Level FlightAware ADS-B (CYSG)
01:03PM 46.0624 -68.5951 212° Southwest 396 456 36,000  Level FlightAware ADS-B (CYSG)
01:04PM 45.9870 -68.6610 211° Southwest 396 456 36,000  Level FlightAware ADS-B (CYSG)
01:04PM 45.9391 -68.7031 212° Southwest 396 456 36,000  Level FlightAware ADS-B (CYSG)
01:05PM 45.8935 -68.7427 211° Southwest 397 457 36,000  Level FlightAware ADS-B (CYSG)
01:05PM 45.8454 -68.7847 212° Southwest 396 456 36,000  Level FlightAware ADS-B (CYSG)
01:06PM 45.7978 -68.8262 211° Southwest 395 455 36,000  Level FlightAware ADS-B (CYSG)
01:06PM 45.7587 -68.8602 211° Southwest 393 452 36,000  Level FlightAware ADS-B (CYSG)
01:07PM 45.6901 -68.9195 211° Southwest 391 450 36,000  Level FlightAware ADS-B (CYSG)
01:07PM 45.6522 -68.9524 211° Southwest 391 450 36,000  Level FlightAware ADS-B (CYSG)
01:08PM 45.6022 -68.9957 211° Southwest 392 451 36,000  Level FlightAware ADS-B (KBGR)
01:08PM 45.5434 -69.0463 211° Southwest 393 452 36,000  Level FlightAware ADS-B (CYSG)
01:09PM 45.4917 -69.0905 211° Southwest 393 452 36,000  Level FlightAware ADS-B (CYSG)
01:09PM 45.4393 -69.1355 211° Southwest 393 452 36,000  Level FlightAware ADS-B (CYSG)
01:10PM 45.3945 -69.1737 211° Southwest 393 452 36,000  Level FlightAware ADS-B (CYSG)
01:11PM 45.3428 -69.2178 211° Southwest 392 451 36,000  Level FlightAware ADS-B (KBGR)
01:11PM 45.2932 -69.2600 211° Southwest 391 450 36,000  Level FlightAware ADS-B (KBGR)
01:12PM 45.2381 -69.3067 211° Southwest 391 450 36,000  Level FlightAware ADS-B (CYSG)
01:12PM 45.1858 -69.3512 211° Southwest 389 448 36,000  Level FlightAware ADS-B (CYSG)
01:13PM 45.1404 -69.3896 211° Southwest 388 447 36,000  Level FlightAware ADS-B (CYSG)
01:13PM 45.1000 -69.4237 211° Southwest 388 447 36,000  Level FlightAware ADS-B (KBGR)
01:14PM 45.0431 -69.4718 211° Southwest 390 449 36,000  Level FlightAware ADS-B (CYSG)
01:14PM 44.9964 -69.5110 211° Southwest 391 450 36,000  Level FlightAware ADS-B (CYSG)
01:15PM 44.9437 -69.5552 211° Southwest 392 451 36,000  Level FlightAware ADS-B (CYSG)
01:15PM 44.8977 -69.5936 211° Southwest 393 452 36,000  Level FlightAware ADS-B (CYSG)
01:16PM 44.8481 -69.6350 211° Southwest 391 450 36,000  Level FlightAware ADS-B (CYSG)
01:16PM 44.7990 -69.6758 211° Southwest 387 445 36,000  Level FlightAware ADS-B (CYSG)
01:17PM 44.7527 -69.7143 211° Southwest 383 441 36,000  Level FlightAware ADS-B (CYSG)
01:18PM 44.6904 -69.7662 211° Southwest 384 442 36,000  Level FlightAware ADS-B (CYSG)
01:18PM 44.6356 -69.8118 211° Southwest 386 444 36,000  Level FlightAware ADS-B (CYQI)
01:19PM 44.5884 -69.8507 210° Southwest 385 443 36,000  Level FlightAware ADS-B (KBGR)
01:19PM 44.5408 -69.8899 211° Southwest 384 442 36,000  Level FlightAware ADS-B (CYSG)
01:20PM 44.4899 -69.9317 211° Southwest 384 442 36,000  Level FlightAware ADS-B (CYQI)
01:21PM 44.3988 -70.0064 210° Southwest 384 442 36,000  Level FlightAware ADS-B (CYSG)
01:21PM 44.3485 -70.0476 210° Southwest 384 442 36,000  Level FlightAware ADS-B (CYSG)
01:22PM 44.3260 -70.0660 211° Southwest 384 442 36,000  Level FlightAware ADS-B (CYQI)
01:22PM 44.2518 -70.1265 210° Southwest 386 444 36,000  Level FlightAware ADS-B (CYQI)
01:22PM 44.2419 -70.1346 210° Southwest 386 444 36,000  Level FlightAware ADS-B (CYSG)
01:23PM 44.2124 -70.1586 210° Southwest 387 445 36,000  Level FlightAware ADS-B (CYSG)
01:23PM 44.1959 -70.1720 211° Southwest 380 437 36,000  Level FlightAware ADS-B
01:23PM 44.1458 -70.2128 210° Southwest 388 447 36,000  Level FlightAware ADS-B (CYSG)
01:24PM 44.0870 -70.2603 210° Southwest 388 447 36,000  Level FlightAware ADS-B
01:25PM 44.0405 -70.2980 210° Southwest 388 447 36,000  Level FlightAware ADS-B (CYSG)
01:26PM 43.9375 -70.3811 210° Southwest 390 449 36,000  Level FlightAware ADS-B
01:26PM 43.8853 -70.4231 210° Southwest 389 448 36,000  Level FlightAware ADS-B
01:27PM 43.8379 -70.4610 210° Southwest 389 448 36,000  Level FlightAware ADS-B
01:27PM 43.7906 -70.4988 210° Southwest 388 447 36,000  Level FlightAware ADS-B
01:28PM 43.7279 -70.5487 210° Southwest 390 449 36,000  Level FlightAware ADS-B
01:29PM 43.6743 -70.5916 210° Southwest 389 448 36,000  Level FlightAware ADS-B (KBOS)
01:29PM 43.6214 -70.6337 210° Southwest 387 445 36,000  Level FlightAware ADS-B (KBOS)
01:29PM 43.6039 -70.6476 211° Southwest 379 436 36,000  Level FlightAware ADS-B
01:30PM 43.5577 -70.6842 210° Southwest 386 444 36,000  Level FlightAware ADS-B (KBOS)
01:30PM 43.5126 -70.7199 211° Southwest 378 435 36,000  Level FlightAware ADS-B
01:31PM 43.4575 -70.7636 210° Southwest 389 448 36,000  Level FlightAware ADS-B (KBOS)
01:31PM 43.4550 -70.7660 210° Southwest 390 449 36,000  Level FlightAware ADS-B
01:31PM 43.4125 -70.7991 210° Southwest 391 450 36,000  Level FlightAware ADS-B (KBOS)
01:32PM 43.3663 -70.8354 210° Southwest 391 450 36,000  Level FlightAware ADS-B (KBOS)
01:32PM 43.3540 -70.8450 210° Southwest 392 451 36,000  Level FlightAware ADS-B
01:32PM 43.3148 -70.8759 210° Southwest 392 451 36,000 -480 Level FlightAware ADS-B (KBOS)
01:33PM 43.2627 -70.9169 210° Southwest 389 448 35,600 -600 Descending FlightAware ADS-B
01:34PM 43.2045 -70.9621 210° Southwest 383 441 35,300 -540 Descending FlightAware ADS-B (KBOS)
01:34PM 43.1527 -71.0026 210° Southwest 388 447 35,000 -600 Descending FlightAware ADS-B
01:35PM 43.1060 -71.0391 210° Southwest 392 451 34,700 -600 Descending FlightAware ADS-B
01:35PM 43.0423 -71.0888 210° Southwest 390 449 34,300 -600 Descending FlightAware ADS-B
01:36PM 42.9949 -71.1255 210° Southwest 398 458 34,000 -300 Descending FlightAware ADS-B (KBOS)
01:36PM 42.9473 -71.1623 210° Southwest 395 455 34,000  Level FlightAware ADS-B (KBOS)
01:37PM 42.8968 -71.2015 210° Southwest 397 457 34,000  Level FlightAware ADS-B (KBOS)
01:37PM 42.8485 -71.2389 210° Southwest 396 456 34,000  Level FlightAware ADS-B (KBOS)
01:38PM 42.7992 -71.2768 210° Southwest 397 457 34,000  Level FlightAware ADS-B (KBOS)
01:38PM 42.7516 -71.3134 210° Southwest 396 456 34,000  Level FlightAware ADS-B (KBOS)
01:39PM 42.6917 -71.3595 210° Southwest 391 450 34,000  Level FlightAware ADS-B
01:39PM 42.6483 -71.3926 210° Southwest 391 450 34,000  Level FlightAware ADS-B
01:40PM 42.5986 -71.4306 210° Southwest 389 448 34,000  Level FlightAware ADS-B
01:40PM 42.5492 -71.4683 210° Southwest 389 448 34,000  Level FlightAware ADS-B
01:41PM 42.5004 -71.5056 210° Southwest 392 451 34,000  Level FlightAware ADS-B
01:41PM 42.4521 -71.5423 210° Southwest 391 450 34,000  Level FlightAware ADS-B
01:42PM 42.4035 -71.5792 210° Southwest 390 449 34,000  Level FlightAware ADS-B
01:42PM 42.3560 -71.6152 210° Southwest 386 444 34,000  Level FlightAware ADS-B
01:43PM 42.3092 -71.6504 209° Southwest 390 449 34,000  Level FlightAware ADS-B
01:43PM 42.2614 -71.6865 209° Southwest 389 448 34,000  Level FlightAware ADS-B
01:44PM 42.2083 -71.7266 209° Southwest 387 445 34,000  Level FlightAware ADS-B (KSNC)
01:45PM 42.1524 -71.7686 209° Southwest 386 444 34,000  Level FlightAware ADS-B (ZSSL)
01:45PM 42.0902 -71.8157 211° Southwest 379 436 34,000  Level FlightAware ADS-B
01:46PM 42.0329 -71.8708 216° Southwest 379 436 34,000  Level FlightAware ADS-B
01:47PM 41.9859 -71.9166 216° Southwest 382 440 34,000  Level FlightAware ADS-B (KSNC)
01:47PM 41.9333 -71.9675 216° Southwest 383 441 34,000  Level FlightAware ADS-B
01:48PM 41.8845 -72.0148 216° Southwest 383 441 34,000  Level FlightAware ADS-B (KSNC)
01:48PM 41.8417 -72.0561 216° Southwest 383 441 34,000  Level FlightAware ADS-B
01:49PM 41.7931 -72.1030 216° Southwest 383 441 34,000  Level FlightAware ADS-B (KSNC)
01:50PM 41.7199 -72.1733 216° Southwest 379 436 34,000  Level FlightAware ADS-B (KSNC)
01:50PM 41.6766 -72.2150 216° Southwest 378 435 34,000  Level FlightAware ADS-B (KSNC)
01:51PM 41.6124 -72.2766 216° Southwest 381 438 34,000  Level FlightAware ADS-B (KSNC)
01:51PM 41.5687 -72.3184 216° Southwest 382 440 34,000  Level FlightAware ADS-B (KSNC)
01:52PM 41.5022 -72.3811 213° Southwest 388 447 34,000  Level FlightAware ADS-B (KSNC)
01:53PM 41.4711 -72.4076 212° Southwest 392 451 34,000  Level FlightAware ADS-B (KSNC)
01:53PM 41.3937 -72.4732 213° Southwest 390 449 34,000  Level FlightAware ADS-B (KSNC)
01:54PM 41.3487 -72.5117 213° Southwest 391 450 34,000  Level FlightAware ADS-B (KSNC)
01:55PM 41.2864 -72.5652 213° Southwest 390 449 34,000  Level FlightAware ADS-B (KSNC)
01:55PM 41.2068 -72.6335 213° Southwest 389 448 34,000  Level FlightAware ADS-B (KSNC)
01:56PM 41.1454 -72.6860 213° Southwest 391 450 34,000  Level FlightAware ADS-B (KSNC)
01:57PM 41.0760 -72.7453 213° Southwest 391 450 34,000  Level FlightAware ADS-B (KSNC)
01:57PM 41.0263 -72.7876 213° Southwest 390 449 34,000  Level FlightAware ADS-B (KSNC)
01:58PM 40.9853 -72.8225 213° Southwest 390 449 34,000  Level FlightAware ADS-B (KSNC)
01:58PM 40.9347 -72.8655 213° Southwest 391 450 34,000  Level FlightAware ADS-B (KSNC)
01:59PM 40.8706 -72.9198 213° Southwest 392 451 34,000  Level FlightAware ADS-B (KSNC)
02:00PM 40.8138 -72.9678 213° Southwest 395 455 34,000  Level FlightAware ADS-B (KSNC)
02:00PM 40.7670 -73.0073 213° Southwest 395 455 34,000  Level FlightAware ADS-B (KSNC)
02:01PM 40.7224 -73.0448 213° Southwest 395 455 34,000  Level FlightAware ADS-B (KSNC)
02:01PM 40.6731 -73.0862 213° Southwest 395 455 34,000  Level FlightAware ADS-B (KSNC)
02:02PM 40.6273 -73.1246 213° Southwest 396 456 34,000  Level FlightAware ADS-B (KSNC)
02:02PM 40.5833 -73.1615 213° Southwest 395 455 34,000  Level FlightAware ADS-B (KSNC)
02:03PM 40.5186 -73.2155 213° Southwest 394 453 34,000  Level FlightAware ADS-B (KSNC)
02:03PM 40.4682 -73.2576 212° Southwest 393 452 34,000  Level FlightAware ADS-B (KSNC)
02:04PM 40.4436 -73.2780 213° Southwest 387 445 34,000  Level FlightAware ADS-B (KWWD)
02:04PM 40.3975 -73.3164 213° Southwest 385 443 34,000  Level FlightAware ADS-B (KWWD)
02:05PM 40.3476 -73.3578 212° Southwest 392 451 34,000  Level FlightAware ADS-B (KPVU)
02:05PM 40.2962 -73.4005 212° Southwest 393 452 34,000  Level FlightAware ADS-B (KSNC)
02:05PM 40.2888 -73.4067 213° Southwest 387 445 34,000  Level FlightAware ADS-B (KWWD)
02:06PM 40.2704 -73.4219 213° Southwest 386 444 34,000  Level FlightAware ADS-B (KWWD)
02:06PM 40.2102 -73.4716 212° Southwest 393 452 34,000  Level FlightAware ADS-B (KSNC)
02:06PM 40.1964 -73.4830 213° Southwest 386 444 34,000  Level FlightAware ADS-B (KWWD)
02:06PM 40.1889 -73.4892 213° Southwest 386 444 34,000  Level FlightAware ADS-B (KWWD)
02:07PM 40.1650 -73.5088 213° Southwest 385 443 34,000  Level FlightAware ADS-B (KWWD)
02:07PM 40.1063 -73.5573 212° Southwest 393 452 34,000  Level FlightAware ADS-B (KPVU)
02:08PM 40.0769 -73.5816 212° Southwest 394 453 34,000  Level FlightAware ADS-B (KSNC)
02:08PM 40.0604 -73.5951 212° Southwest 395 455 34,000  Level FlightAware ADS-B (KPVU)
02:08PM 40.0567 -73.5981 213° Southwest 388 447 34,000  Level FlightAware ADS-B (KWWD)
02:08PM 40.0238 -73.6251 213° Southwest 388 447 34,000  Level FlightAware ADS-B (KWWD)
02:09PM 39.9720 -73.6677 212° Southwest 397 457 34,000  Level FlightAware ADS-B (KSNC)
02:09PM 39.9170 -73.7128 212° Southwest 397 457 34,000  Level FlightAware ADS-B (KWWD)
02:10PM 39.8611 -73.7583 212° Southwest 398 458 34,000  Level FlightAware ADS-B (KWWD)
02:11PM 39.8077 -73.8019 212° Southwest 397 457 34,000  Level FlightAware ADS-B (KWWD)
02:11PM 39.7493 -73.8493 212° Southwest 397 457 34,000  Level FlightAware ADS-B (KWWD)
02:12PM 39.6986 -73.8905 212° Southwest 398 458 34,000  Level FlightAware ADS-B (KWWD)
02:12PM 39.6374 -73.9401 212° Southwest 399 459 34,000  Level FlightAware ADS-B (KWWD)
02:13PM 39.5806 -73.9860 212° Southwest 401 461 34,000  Level FlightAware ADS-B (KWWD)
02:14PM 39.5260 -74.0300 212° Southwest 401 461 34,000  Level FlightAware ADS-B (KWWD)
02:14PM 39.4691 -74.0759 212° Southwest 400 460 34,000  Level FlightAware ADS-B (KWWD)
02:15PM 39.4163 -74.1185 212° Southwest 401 461 34,000  Level FlightAware ADS-B (KWWD)
02:15PM 39.3685 -74.1568 212° Southwest 402 463 34,000  Level FlightAware ADS-B (KWWD)
02:16PM 39.3080 -74.2053 212° Southwest 401 461 34,000  Level FlightAware ADS-B (KPVU)
02:16PM 39.2567 -74.2464 212° Southwest 397 457 34,000  Level FlightAware ADS-B (KWWD)
02:17PM 39.1927 -74.2975 212° Southwest 398 458 34,000  Level FlightAware ADS-B (KWWD)
02:18PM 39.1297 -74.3475 212° Southwest 399 459 34,000  Level FlightAware ADS-B (KWWD)
02:18PM 39.0674 -74.3971 213° Southwest 401 461 34,000  Level FlightAware ADS-B (KWWD)
02:19PM 39.0174 -74.4367 212° Southwest 401 461 34,000  Level FlightAware ADS-B (KWWD)
02:20PM 38.9541 -74.4868 212° Southwest 401 461 34,000  Level FlightAware ADS-B (KWWD)
02:20PM 38.9005 -74.5292 212° Southwest 402 463 34,000  Level FlightAware ADS-B (KWWD)
02:21PM 38.8425 -74.5748 212° Southwest 400 460 34,000  Level FlightAware ADS-B (KWWD)
02:21PM 38.7916 -74.6149 212° Southwest 401 461 34,000  Level FlightAware ADS-B (KWWD)
02:22PM 38.7322 -74.6617 212° Southwest 403 464 34,000  Level FlightAware ADS-B (KWWD)
02:22PM 38.7143 -74.6758 212° Southwest 409 471 34,000  Level FlightAware ADS-B
02:23PM 38.6226 -74.7476 212° Southwest 400 460 34,000  Level FlightAware ADS-B (KWWD)
02:24PM 38.5675 -74.7906 212° Southwest 399 459 34,000  Level FlightAware ADS-B (KWWD)
02:24PM 38.5018 -74.8419 212° Southwest 398 458 34,000  Level FlightAware ADS-B (KWWD)
02:25PM 38.4369 -74.8925 212° Southwest 399 459 34,000  Level FlightAware ADS-B (KWWD)
02:26PM 38.3737 -74.9415 212° Southwest 400 460 34,000  Level FlightAware ADS-B (KWWD)
02:26PM 38.3092 -74.9914 212° Southwest 401 461 34,000  Level FlightAware ADS-B (KWWD)
02:27PM 38.2610 -75.0288 212° Southwest 402 463 34,000  Level FlightAware ADS-B (KWWD)
02:27PM 38.1973 -75.0779 212° Southwest 402 463 34,000  Level FlightAware ADS-B (KWWD)
02:28PM 38.1483 -75.1157 212° Southwest 402 463 34,000  Level FlightAware ADS-B (KWWD)
02:28PM 38.1010 -75.1522 211° Southwest 412 474 34,000  Level FlightAware ADS-B (KWWD)
02:29PM 38.0488 -75.1922 211° Southwest 411 473 34,000  Level FlightAware ADS-B (KWWD)
02:29PM 38.0001 -75.2296 211° Southwest 413 475 34,000  Level FlightAware ADS-B (KWWD)
02:30PM 37.9496 -75.2682 211° Southwest 411 473 34,000  Level FlightAware ADS-B (KWWD)
02:31PM 37.8960 -75.3093 211° Southwest 410 472 34,000 60 Level FlightAware ADS-B (KWWD)
02:31PM 37.8371 -75.3540 211° Southwest 392 451 34,100  Climbing FlightAware ADS-B (KWWD)
02:32PM 37.7772 -75.3996 211° Southwest 393 452 34,000 -120 Descending FlightAware ADS-B (KWWD)
02:32PM 37.7313 -75.4344 211° Southwest 398 458 34,000  Level FlightAware ADS-B (KWWD)
02:33PM 37.6717 -75.4801 211° Southwest 412 474 34,000  Level FlightAware ADS-B (KWWD)
02:33PM 37.6169 -75.5218 211° Southwest 410 472 34,000  Level FlightAware ADS-B (KWWD)
02:34PM 37.5684 -75.5581 212° Southwest 396 456 34,000  Level FlightAware ADS-B (KWWD)
02:35PM 37.5067 -75.6048 212° Southwest 398 458 34,000  Level FlightAware ADS-B (KWWD)
02:35PM 37.4541 -75.6443 211° Southwest 416 479 34,000 -120 Level FlightAware ADS-B (KWWD)
02:36PM 37.4037 -75.6824 211° Southwest 416 479 33,900 -300 Descending FlightAware ADS-B (KWWD)
02:36PM 37.3542 -75.7195 211° Southwest 410 472 33,700 -540 Descending FlightAware ADS-B (KWWD)
02:37PM 37.2902 -75.7676 212° Southwest 400 460 33,300 -660 Descending FlightAware ADS-B (KWWD)
02:37PM 37.2281 -75.8142 211° Southwest 414 476 32,900 -720 Descending FlightAware ADS-B (KWWD)
02:38PM 37.1775 -75.8519 211° Southwest 408 470 32,500 -600 Descending FlightAware ADS-B (KWWD)
02:39PM 37.1135 -75.8994 211° Southwest 395 455 32,200 -420 Descending FlightAware ADS-B (KWWD)
02:39PM 37.0547 -75.9432 211° Southwest 395 455 32,000 -180 Descending FlightAware ADS-B (KWWD)
02:40PM 37.0007 -75.9834 211° Southwest 398 458 32,000  Level FlightAware ADS-B (KWWD)
02:40PM 36.9494 -76.0217 211° Southwest 398 458 32,000  Level FlightAware ADS-B (KWWD)
02:42PM 36.7726 -76.1523 211° Southwest 392 451 32,000  Level FlightAware ADS-B (KWWD)
02:43PM 36.7158 -76.1942 210° Southwest 396 456 32,000  Level Washington Center
02:43PM 36.6577 -76.2368 211° Southwest 395 455 32,000  Level FlightAware ADS-B (KWWD)
02:44PM 36.6203 -76.2633 210° Southwest 396 456 32,000  Level Washington Center
02:45PM 36.5110 -76.3443 211° Southwest 394 453 32,000  Level FlightAware ADS-B (KWWD)
02:45PM 36.5264 -76.3317 210° Southwest 392 451 32,000  Level Washington Center
02:46PM 36.4139 -76.4139 210° Southwest 392 451 32,000  Level Washington Center
02:47PM 36.3194 -76.4822 210° Southwest 392 451 32,000  Level Washington Center
02:48PM 36.2225 -76.5528 210° Southwest 400 460 32,000  Level Washington Center
02:49PM 36.1457 -76.6077 210° Southwest  Level FlightAware Approximate
02:49PM 36.1225 -76.6244 210° Southwest 412 474 32,000  Level Washington Center
02:50PM 36.0225 -76.6972 210° Southwest 412 474 32,000  Level Washington Center
02:51PM 35.9025 -76.7839 210° Southwest 414 476 32,000  Level Washington Center
02:52PM 35.8033 -76.8550 210° Southwest 416 479 32,000  Level Washington Center
02:53PM 35.7036 -76.9272 210° Southwest 415 478 32,000  Level Washington Center
02:54PM 35.6044 -76.9964 210° Southwest 421 484 32,000  Level Washington Center
02:55PM 35.5022 -77.0675 210° Southwest 421 484 32,000  Level Washington Center
02:57PM 35.4011 -77.1403 210° Southwest 421 484 32,000  Level Washington Center
02:58PM 35.2794 -77.2272 210° Southwest 421 484 32,000  Level Washington Center
02:59PM 35.1772 -77.3000 210° Southwest 422 486 32,000  Level Washington Center
03:00PM 35.0744 -77.3719 210° Southwest 422 486 32,000  Level Washington Center
03:01PM 34.9722 -77.4431 210° Southwest 422 486 32,000  Level Washington Center
03:02PM 34.8692 -77.5158 210° Southwest 423 487 32,000  Level Washington Center
03:03PM 34.7550 -77.5942 209° Southwest 424 488 32,000  Level Washington Center
03:04PM 34.6525 -77.6669 210° Southwest 425 489 32,000  Level Washington Center
03:05PM 34.5494 -77.7378 210° Southwest 425 489 32,000  Level Washington Center
03:06PM 34.4261 -77.8239 210° Southwest 426 490 32,000  Level Washington Center
03:07PM 34.3178 -77.8825 204° Southwest 428 493 32,000  Level Washington Center
03:08PM 34.2078 -77.9150 194° South 439 505 32,000  Level Washington Center
03:09PM 34.0669 -77.9586 194° South 439 505 32,000  Level Washington Center
03:10PM 33.9497 -77.9928 194° South 438 504 32,000  Level Washington Center
03:11PM 33.8289 -78.0253 193° South 448 516 32,000  Level Washington Center
03:12PM 33.7114 -78.0597 194° South 441 507 32,000  Level Washington Center
03:13PM 33.5942 -78.0939 194° South 437 503 32,000 480 Level Washington Center
03:14PM 33.4756 -78.1278 193° South 437 503 33,100 960 Climbing Washington Center
03:15PM 33.3308 -78.1700 194° South 442 509 34,000 420 Climbing Washington Center
03:16PM 33.2100 -78.2017 192° South 443 510 34,000 240 Level Washington Center
03:17PM 33.0897 -78.2386 194° South 443 510 34,500 720 Climbing Washington Center
03:18PM 32.9667 -78.2728 193° South 450 518 35,500 720 Climbing Washington Center
03:19PM 32.8419 -78.3083 193° South 457 526 36,000 180 Climbing Washington Center
03:21PM 32.6614 -78.3575 193° South 454 522 36,000  Level Jacksonville Center
03:22PM 32.5394 -78.3931 194° South 454 522 36,000  Level Jacksonville Center
03:23PM 32.4153 -78.4239 192° South 459 528 36,000  Level Jacksonville Center
03:24PM 32.3039 -78.4589 195° South 459 528 36,000  Level Jacksonville Center
03:25PM 32.1800 -78.4967 194° South 465 535 36,000  Level Jacksonville Center
03:26PM 32.0539 -78.5344 194° South 465 535 36,000  Level Jacksonville Center
03:27PM 31.9197 -78.5728 194° South 465 535 36,000  Level Jacksonville Center
03:28PM 31.7956 -78.6078 193° South 471 542 36,000  Level Jacksonville Center
03:29PM 31.6717 -78.6453 194° South 471 542 36,000  Level Jacksonville Center
03:30PM 31.5453 -78.6803 193° South 471 542 36,000  Level Jacksonville Center
03:31PM 31.4253 -78.7100 192° South 471 542 36,000  Level Jacksonville Center
03:32PM 31.2972 -78.7522 196° South 471 542 36,000  Level Jacksonville Center
03:33PM 31.1753 -78.7844 193° South 471 542 36,000  Level Jacksonville Center
03:34PM 31.0531 -78.8164 193° South 471 542 36,000  Level Jacksonville Center
03:35PM 30.9292 -78.8556 195° South 471 542 36,000  Level Jacksonville Center
03:36PM 30.8069 -78.8922 194° South 466 536 36,000  Level Jacksonville Center
03:37PM 30.6786 -78.9242 192° South 466 536 36,000  Level Jacksonville Center
03:38PM 30.5586 -78.9606 195° South 451 519 36,000  Level Miami Center
03:39PM 30.4372 -78.9942 193° South 451 519 36,000  Level Miami Center
03:40PM 30.3136 -79.0419 198° South 464 534 36,000  Level Miami Center
03:41PM 30.1919 -79.0875 198° South 464 534 36,000  Level Miami Center
03:42PM 30.0725 -79.1331 198° South 464 534 36,000  Level Miami Center
03:43PM 29.9422 -79.1925 202° Southwest 464 534 36,000  Level Miami Center
03:44PM 29.8206 -79.2400 199° South 464 534 36,000  Level Miami Center
03:45PM 29.6969 -79.2828 197° South 464 534 36,000  Level Miami Center
03:51PM 28.9238 -79.5711 198° South 456 525 36,000  Level FlightAware ADS-B
03:52PM 28.8132 -79.6127 198° South 457 526 36,000  Level FlightAware ADS-B
03:53PM 28.7228 -79.6468 198° South 457 526 36,000  Level FlightAware ADS-B
03:53PM 28.6465 -79.6753 198° South 457 526 36,000  Level FlightAware ADS-B
03:54PM 28.5383 -79.7158 198° South 458 527 36,000  Level FlightAware ADS-B
03:55PM 28.4785 -79.7381 198° South 458 527 36,000  Level FlightAware ADS-B
03:55PM 28.4197 -79.7601 198° South 458 527 36,000  Level FlightAware ADS-B
03:56PM 28.3582 -79.7830 198° South 458 527 36,000  Level FlightAware ADS-B
03:56PM 28.2787 -79.8127 198° South 459 528 36,000  Level FlightAware ADS-B
03:57PM 28.2169 -79.8356 198° South 460 529 36,000  Level FlightAware ADS-B
03:57PM 28.1559 -79.8583 198° South 461 531 36,000  Level FlightAware ADS-B
03:58PM 28.0943 -79.8812 198° South 462 532 36,000  Level FlightAware ADS-B
03:58PM 28.0200 -79.9086 198° South 462 532 36,000  Level FlightAware ADS-B
03:59PM 27.9330 -79.9408 198° South 461 531 36,000  Level FlightAware ADS-B
04:00PM 27.8502 -79.9714 198° South 459 528 36,000  Level FlightAware ADS-B
04:00PM 27.7700 -80.0009 198° South 458 527 36,000  Level FlightAware ADS-B
04:01PM 27.7091 -80.0233 198° South 457 526 36,000  Level FlightAware ADS-B
04:01PM 27.6496 -80.0451 198° South 455 524 36,000  Level FlightAware ADS-B
04:02PM 27.5289 -80.0894 198° South 454 522 36,000  Level FlightAware ADS-B
04:03PM 27.4498 -80.1184 198° South 452 520 36,000  Level FlightAware ADS-B
04:04PM 27.3908 -80.1400 198° South 451 519 36,000  Level FlightAware ADS-B
04:04PM 27.3136 -80.1682 198° South 450 518 36,000  Level FlightAware ADS-B
04:05PM 27.2514 -80.1908 198° South 450 518 36,000  Level FlightAware ADS-B
04:05PM 27.1909 -80.2129 198° South 450 518 36,000  Level FlightAware ADS-B
04:06PM 27.1125 -80.2414 198° South 451 519 36,000  Level FlightAware ADS-B
04:07PM 27.0366 -80.2690 198° South 451 519 36,000  Level FlightAware ADS-B
04:07PM 26.9722 -80.2924 198° South 451 519 36,000  Level FlightAware ADS-B
04:08PM 26.9151 -80.3131 198° South 452 520 36,000  Level FlightAware ADS-B
04:08PM 26.8562 -80.3344 198° South 453 521 36,000  Level FlightAware ADS-B
04:09PM 26.7931 -80.3572 198° South 452 520 36,000  Level FlightAware ADS-B
04:09PM 26.7149 -80.3855 198° South 452 520 36,000  Level FlightAware ADS-B
04:10PM 26.6587 -80.4058 198° South 452 520 36,000  Level FlightAware ADS-B
04:10PM 26.5748 -80.4360 198° South 451 519 36,000  Level FlightAware ADS-B
04:11PM 26.5141 -80.4578 198° South 451 519 36,000  Level FlightAware ADS-B
04:11PM 26.4567 -80.4784 198° South 452 520 36,000  Level FlightAware ADS-B
04:12PM 26.3954 -80.5003 198° South 453 521 36,000  Level FlightAware ADS-B
04:12PM 26.3349 -80.5221 198° South 454 522 36,000  Level FlightAware ADS-B
04:13PM 26.2349 -80.5578 198° South 454 522 36,000  Level FlightAware ADS-B
04:14PM 26.1743 -80.5796 198° South 454 522 36,000  Level FlightAware ADS-B
04:14PM 26.1157 -80.6005 198° South 454 522 36,000  Level FlightAware ADS-B
04:15PM 26.0577 -80.6213 198° South 454 522 36,000  Level FlightAware ADS-B
04:15PM 25.9751 -80.6506 198° South 454 522 36,000  Level FlightAware ADS-B
04:16PM 25.9150 -80.6720 198° South 453 521 36,000  Level FlightAware ADS-B
04:16PM 25.8554 -80.6932 198° South 452 520 36,000  Level FlightAware ADS-B
04:17PM 25.7970 -80.7139 198° South 451 519 36,000  Level FlightAware ADS-B
04:18PM 25.7166 -80.7424 198° South 451 519 36,000  Level FlightAware ADS-B
04:19PM 25.5959 -80.7919 215° Southwest 434 499 36,000  Level FlightAware ADS-B
04:19PM 25.5289 -80.8615 225° Southwest 425 489 36,000  Level FlightAware ADS-B
04:20PM 25.4875 -80.9072 225° Southwest 426 490 36,000  Level FlightAware ADS-B
04:21PM 25.3938 -81.0104 225° Southwest 430 495 36,000  Level FlightAware ADS-B
04:24PM 25.1599 -81.2669 225° Southwest 431 496 36,000  Level FlightAware ADS-B
04:25PM 25.0692 -81.3639 225° Southwest 429 494 36,000 -420 Level Miami Center
04:26PM 24.9825 -81.4617 226° Southwest 429 494 35,200 -900 Descending Miami Center
04:27PM 24.8983 -81.5544 225° Southwest 429 494 34,200 -1,080 Descending Miami Center
04:28PM 24.8094 -81.6542 226° Southwest 421 484 33,100 -1,080 Descending Miami Center
04:29PM 24.7206 -81.7511 225° Southwest 432 497 32,100 -1,200 Descending Miami Center
04:30PM 24.6339 -81.8461 225° Southwest 438 504 30,800 -1,500 Descending Miami Center
04:31PM 24.5606 -81.9183 222° Southwest 423 487 29,100 -1,800 Descending Miami Center
04:32PM 24.4781 -82.0064 224° Southwest 412 474 27,300 -1,500 Descending Miami Center
04:33PM 24.3978 -82.0919 224° Southwest 412 474 26,200 -1,020 Descending Miami Center
04:34PM 24.3194 -82.1822 226° Southwest 412 474 25,300 -960 Descending Miami Center
04:35PM 24.2372 -82.2672 223° Southwest 412 474 24,300 -1,020 Descending Miami Center
04:36PM 24.1611 -82.3483 224° Southwest 406 467 23,300 -1,020 Descending Miami Center
04:37PM 24.0786 -82.4333 223° Southwest 400 460 22,300 -840 Descending Miami Center
04:38PM 23.9983 -82.5139 223° Southwest 400 460 21,700 -600 Descending Miami Center
04:40PM 23.8306 -82.4925 173° South  Level FlightAware Approximate
04:47PM 23.0271 -82.4000 180° South  Level FlightAware Approximate
04:48PM 22.9891 -82.4091 180° South  Level Estimated
04:49PM 22.9891 -82.4091 180° South  Level Estimated
04:50PM 22.9891 -82.4091 180° South  Level Estimated
04:51PM 22.9891 -82.4091 180° South  Level Estimated
04:52PM 22.9891 -82.4091 180° South  Level Estimated
04:53PM 22.9891 -82.4091 180° South  Level Estimated
04:54PM 22.9891 -82.4091 180° South  Level Estimated
04:55PM 22.9891 -82.4091 180° South  Level Estimated
04:56PM 22.9891 -82.4091 180° South  Level Estimated
04:57PM 22.9891 -82.4091 180° South  Level Estimated
04:58PM 22.9891 -82.4091 180° South  Level Estimated
04:59PM 22.9891 -82.4091 180° South  Level Estimated
05:00PM 22.9891 -82.4091 180° South  Level Estimated
05:01PM 22.9891 -82.4091 180° South  Level Estimated
05:02PM 22.9891 -82.4091 180° South  Level Estimated
05:03PM 22.9891 -82.4091 180° South  Level Estimated
05:04PM 22.9891 -82.4091 180° South  Level Estimated
05:05PM 22.9891 -82.4091 180° South  Level Estimated
05:06PM 22.9891 -82.4091 180° South  Level Estimated
05:07PM 22.9891 -82.4091 180° South  Level Estimated
05:08PM 22.9891 -82.4091 180° South  Level Estimated
05:09PM 22.9891 -82.4091 180° South  Level Estimated